Berlin Dahlem, Germany

4:34 PM CEST on September 21, 2014 (GMT +0200)
Tiergarten | Change Station
CLOSE
Current Station
Personal Weather Station
Location: Berlin, BERLIN
Elevation: 121 ft
Nearby Weather Stations

Elev 121 ft 52.52 °N, 13.32 °E | Updated 14 minutes ago

Mostly Cloudy
Mostly Cloudy
66.0 °F
Feels Like 66.0 °F
N
-
Wind Variable Wind from North

Today
High -- | Low -- °F
--% Chance of Precip.
Yesterday
High -- | Low -- °F
Precip. -- in
6:50 AM 7:08 PM
Waning Crescent, 6% visible
Pressure 29.83 in
Visibility 6.2 miles
Clouds Scattered Clouds 2000 ft
Scattered Clouds 2700 ft
Mostly Cloudy 11000 ft
Dew Point 57 °F
Humidity 78%
Rainfall -999.00 in
Snow Depth Not available.
UV 1 out of 12
Pollen Not available.
Air Quality Not available.
Flu Activity Not available.
METAR EDDT 211420Z 29008KT 9999 SCT020 SCT027 BKN110 18/13 Q1010 NOSIG

More Conditions Fewer Conditions

Pressure 29.83 in
Visibility 6.2 miles
Clouds Scattered Clouds 2000 ft
Scattered Clouds 2700 ft
Mostly Cloudy 11000 ft
Dew Point 57 °F
Humidity 78%
Rainfall -999.00 in
Snow Depth Not available.
UV 1 out of 12
Pollen Not available.
Air Quality Not available.
Flu Activity Not available.
METAR EDDT 211420Z 29008KT 9999 SCT020 SCT027 BKN110 18/13 Q1010 NOSIG

More Conditions Fewer Conditions

10-Day Weather Forecast

Almanac

Astronomy

Sep. 21, 2014 Rise Set
Actual Time 6:50 AM CEST 7:08 PM CEST
Civil Twilight 6:16 AM CEST 7:42 PM CEST
Nautical Twilight 5:35 AM CEST 8:22 PM CEST
Astronomical Twilight 4:53 AM CEST 9:04 PM CEST
Moon 3:52 AM CEST 5:47 PM CEST
Length of Visible Light 13h 25m
Length of Day
12h 17m
Tomorrow will be 4m 3s shorter.
Waning Crescent, 6% of the Moon is Illuminated
Today
Waning Crescent
Sep 24
New
Oct 1
First Quarter
Oct 8
Full
Oct 15
Last Quarter

Today's Extremes

Country Highs Country Lows

Community

WunderPhotos

Upload Photos

1,755,158 photos uploaded!

Nearby

Snow Depth

Not available.

Earthquake Activity

City Distance Mag. Time & Date
No recent earthquake activity has been reported nearby.
Minimum magnitude displayed is 2.5.

Coastal Water Temperatures

Place Temperature
No Stations Reporting

Nearby Weather Stations